Time;durP1;ratioP1;P1;durP2;ratioP2;P2;SDS_P1;SDS_P2;PMS_P1;PMS_P2;Temp;Humidity;BMP_temperature;BMP_pressure;BME280_temperature;BME280_humidity;BME280_pressure;Samples;Min_cycle;Max_cycle;Signal;HPM_P1;HPM_P2
2022/04/28 00:01:02;;;;;;;12.18;10.23;;;;;;;;;;4991861;28;20190;-80
2022/04/28 00:03:29;;;;;;;12.95;9.85;;;;;;;;;;4992035;28;20050;-80
2022/04/28 00:05:57;;;;;;;13.43;10.20;;;;;;;;;;4992841;28;20093;-80
2022/04/28 00:08:24;;;;;;;10.70;9.65;;;;;;;;;;4991441;28;20050;-79
2022/04/28 00:10:53;;;;;;;12.40;9.95;;;;;;;;;;4992035;28;20137;-80
2022/04/28 00:13:20;;;;;;;14.70;10.63;;;;;;;;;;4992613;28;20417;-79
2022/04/28 00:15:47;;;;;;;12.52;10.40;;;;;;;;;;4991291;28;20082;-80
2022/04/28 00:18:14;;;;;;;13.63;11.15;;;;;;;;;;4991109;28;20047;-80
2022/04/28 00:20:43;;;;;;;11.18;9.68;;;;;;;;;;4991274;28;20050;-80
2022/04/28 00:23:10;;;;;;;12.35;9.45;;;;;;;;;;4991674;28;20057;-79
2022/04/28 00:25:44;;;;;;;16.08;10.27;;;;;;;;;;4990801;28;20090;-79
2022/04/28 00:28:12;;;;;;;12.57;10.18;;;;;;;;;;4991710;28;20089;-80
2022/04/28 00:30:39;;;;;;;11.82;10.45;;;;;;;;;;4992404;28;20086;-80
2022/04/28 00:33:12;;;;;;;15.15;10.98;;;;;;;;;;4991414;28;20053;-80
2022/04/28 00:35:39;;;;;;;13.55;11.02;;;;;;;;;;5006460;23;20073;-91
2022/04/28 00:38:07;;;;;;;12.77;10.90;;;;;;;;;;5029840;28;20049;-91
2022/04/28 00:40:34;;;;;;;12.40;10.73;;;;;;;;;;5024978;28;20054;-91
2022/04/28 00:43:19;;;;;;;15.05;10.70;;;;;;;;;;4996047;28;20542;-91
2022/04/28 00:45:50;;;;;;;11.88;10.32;;;;;;;;;;4994922;28;20069;-90
2022/04/28 00:51:04;;;;;;;14.88;11.50;;;;;;;;;;5012325;28;20148;-90
2022/04/28 00:53:34;;;;;;;15.25;10.02;;;;;;;;;;4995400;28;20128;-91
2022/04/28 00:56:02;;;;;;;11.07;9.98;;;;;;;;;;4996111;28;20113;-90
2022/04/28 00:58:30;;;;;;;10.25;9.15;;;;;;;;;;4997177;28;20077;-91
2022/04/28 01:00:57;;;;;;;10.38;9.02;;;;;;;;;;5033128;28;20069;-91
2022/04/28 01:03:30;;;;;;;10.18;8.65;;;;;;;;;;5018263;28;20046;-91
2022/04/28 01:05:58;;;;;;;9.63;8.45;;;;;;;;;;5021648;28;20056;-91
2022/04/28 01:08:25;;;;;;;12.50;9.80;;;;;;;;;;4997054;28;20133;-91
2022/04/28 01:10:53;;;;;;;12.60;10.20;;;;;;;;;;4995157;28;20141;-91
2022/04/28 01:13:20;;;;;;;13.52;10.95;;;;;;;;;;4994974;28;20137;-91
2022/04/28 01:15:48;;;;;;;12.57;10.63;;;;;;;;;;4994451;28;20499;-91
2022/04/28 01:18:16;;;;;;;13.38;11.93;;;;;;;;;;4994526;28;20554;-91
2022/04/28 01:20:43;;;;;;;14.00;11.40;;;;;;;;;;4994456;28;20050;-91
2022/04/28 01:23:11;;;;;;;14.15;11.63;;;;;;;;;;4994317;28;20073;-92
2022/04/28 01:25:38;;;;;;;13.98;10.82;;;;;;;;;;4994384;28;20084;-92
2022/04/28 01:28:05;;;;;;;15.00;11.07;;;;;;;;;;4994319;28;20142;-91
2022/04/28 01:30:34;;;;;;;14.80;11.32;;;;;;;;;;4995098;28;20077;-91
2022/04/28 01:33:01;;;;;;;17.65;11.20;;;;;;;;;;4997803;28;20060;-91
2022/04/28 01:35:28;;;;;;;12.82;9.93;;;;;;;;;;4998173;28;20148;-91
2022/04/28 01:37:55;;;;;;;15.00;10.45;;;;;;;;;;4997699;28;20458;-91
2022/04/28 01:40:22;;;;;;;14.25;10.18;;;;;;;;;;4997960;28;20498;-91
2022/04/28 01:42:50;;;;;;;14.43;9.88;;;;;;;;;;4997913;28;20073;-91
2022/04/28 01:45:17;;;;;;;11.25;10.05;;;;;;;;;;4997459;28;20058;-92
2022/04/28 01:47:44;;;;;;;12.80;10.07;;;;;;;;;;4998101;28;20238;-92
2022/04/28 01:50:12;;;;;;;11.35;9.95;;;;;;;;;;4997534;28;20475;-91
2022/04/28 01:55:25;;;;;;;13.70;10.63;;;;;;;;;;5014054;28;20073;-91
2022/04/28 01:57:52;;;;;;;11.13;10.02;;;;;;;;;;4997278;28;20145;-91
2022/04/28 02:00:20;;;;;;;12.82;10.65;;;;;;;;;;4997499;28;20056;-91
2022/04/28 02:02:47;;;;;;;14.48;10.60;;;;;;;;;;4997303;28;20529;-91
2022/04/28 02:05:15;;;;;;;10.88;9.75;;;;;;;;;;4997125;28;20058;-91
2022/04/28 02:07:42;;;;;;;16.67;11.32;;;;;;;;;;4997241;28;20065;-91
2022/04/28 02:10:10;;;;;;;13.85;11.32;;;;;;;;;;4997250;28;20058;-91
2022/04/28 02:12:37;;;;;;;15.00;11.27;;;;;;;;;;4996685;28;20046;-92
2022/04/28 02:15:04;;;;;;;14.35;11.02;;;;;;;;;;4996777;28;20467;-91
2022/04/28 02:17:34;;;;;;;13.60;11.13;;;;;;;;;;4997580;28;20054;-91
2022/04/28 02:20:11;;;;;;;16.23;11.30;;;;;;;;;;4996541;28;20114;-91
2022/04/28 02:22:38;;;;;;;12.18;10.88;;;;;;;;;;4996726;28;20137;-90
2022/04/28 02:25:06;;;;;;;16.05;12.55;;;;;;;;;;4996823;28;20050;-91
2022/04/28 02:27:33;;;;;;;15.82;12.93;;;;;;;;;;4997640;28;20049;-91
2022/04/28 02:30:01;;;;;;;14.18;12.45;;;;;;;;;;5002421;28;20121;-92
2022/04/28 02:33:08;;;;;;;15.27;12.38;;;;;;;;;;5013008;28;20074;-91
2022/04/28 02:35:15;;;;;;;23.38;13.05;;;;;;;;;;5025851;28;20077;-91
2022/04/28 02:37:42;;;;;;;19.15;12.60;;;;;;;;;;4997471;28;20092;-93
2022/04/28 02:40:10;;;;;;;33.40;13.95;;;;;;;;;;4997615;28;20069;-92
2022/04/28 02:42:40;;;;;;;16.42;11.50;;;;;;;;;;4996010;28;20065;-92
2022/04/28 02:45:08;;;;;;;14.27;10.25;;;;;;;;;;4996565;28;20123;-92
2022/04/28 02:47:35;;;;;;;16.10;10.75;;;;;;;;;;4980465;28;20484;-91
2022/04/28 02:50:11;;;;;;;12.55;10.32;;;;;;;;;;4996502;28;20070;-91
2022/04/28 02:52:38;;;;;;;12.48;10.80;;;;;;;;;;4996775;28;20493;-92
2022/04/28 02:55:06;;;;;;;17.25;10.40;;;;;;;;;;4995803;28;20530;-91
2022/04/28 02:57:33;;;;;;;14.55;10.38;;;;;;;;;;4996462;28;20249;-92
2022/04/28 03:00:04;;;;;;;16.88;11.18;;;;;;;;;;4996265;28;20399;-91
2022/04/28 03:02:31;;;;;;;17.08;12.35;;;;;;;;;;4996491;28;20057;-91
2022/04/28 03:05:01;;;;;;;14.55;11.70;;;;;;;;;;4996227;28;20054;-91
2022/04/28 03:13:00;;;;;;;13.48;11.57;;;;;;;;;;5013754;28;20136;-92
2022/04/28 03:15:27;;;;;;;18.42;12.75;;;;;;;;;;4996526;28;20061;-91
2022/04/28 03:17:55;;;;;;;18.02;13.27;;;;;;;;;;4996217;28;20084;-92
2022/04/28 03:20:22;;;;;;;16.27;11.77;;;;;;;;;;4996953;28;20538;-91
2022/04/28 03:22:49;;;;;;;19.48;12.93;;;;;;;;;;4996650;28;20074;-91
2022/04/28 03:25:17;;;;;;;14.15;11.32;;;;;;;;;;4996478;28;20056;-91
2022/04/28 03:27:44;;;;;;;13.38;11.38;;;;;;;;;;4996735;28;20132;-91
2022/04/28 03:30:11;;;;;;;17.33;12.55;;;;;;;;;;4997169;28;20072;-91
2022/04/28 03:32:38;;;;;;;17.45;12.32;;;;;;;;;;4996318;28;20095;-92
2022/04/28 03:35:06;;;;;;;18.77;12.70;;;;;;;;;;4996845;28;20050;-92
2022/04/28 03:37:33;;;;;;;15.43;12.23;;;;;;;;;;4977583;28;20100;-92
2022/04/28 03:40:00;;;;;;;15.25;11.95;;;;;;;;;;4977353;28;20141;-92
2022/04/28 03:42:28;;;;;;;15.82;12.23;;;;;;;;;;4977287;28;20077;-92
2022/04/28 03:44:56;;;;;;;18.45;13.23;;;;;;;;;;4977039;28;20074;-92
2022/04/28 03:47:23;;;;;;;16.85;12.32;;;;;;;;;;4976862;28;20129;-92
2022/04/28 03:49:50;;;;;;;20.70;13.48;;;;;;;;;;4976556;28;20196;-91
2022/04/28 03:52:17;;;;;;;21.52;15.05;;;;;;;;;;4976617;28;20050;-93
2022/04/28 03:54:51;;;;;;;23.35;18.02;;;;;;;;;;4978362;28;20048;-92
2022/04/28 03:57:18;;;;;;;32.97;23.48;;;;;;;;;;4978289;28;20073;-92
2022/04/28 03:59:45;;;;;;;27.25;17.55;;;;;;;;;;4990416;28;20046;-92
2022/04/28 04:02:13;;;;;;;34.45;19.45;;;;;;;;;;4998508;28;20038;-93
2022/04/28 04:04:40;;;;;;;23.20;16.27;;;;;;;;;;4988432;28;20050;-91
2022/04/28 04:07:08;;;;;;;22.52;14.27;;;;;;;;;;4984899;28;20115;-92
2022/04/28 04:09:35;;;;;;;21.88;14.20;;;;;;;;;;4977199;28;20443;-93
2022/04/28 04:12:03;;;;;;;20.90;14.43;;;;;;;;;;4976823;28;20085;-93
2022/04/28 04:14:32;;;;;;;19.95;14.32;;;;;;;;;;4975974;28;20129;-92
2022/04/28 04:17:00;;;;;;;21.33;13.55;;;;;;;;;;4976908;28;20058;-93
2022/04/28 04:19:27;;;;;;;17.88;12.63;;;;;;;;;;4976483;28;20046;-93
2022/04/28 04:21:54;;;;;;;18.83;13.70;;;;;;;;;;4976575;28;20080;-92
2022/04/28 04:24:22;;;;;;;22.73;15.02;;;;;;;;;;4977731;28;20133;-92
2022/04/28 04:26:49;;;;;;;19.20;14.93;;;;;;;;;;4991743;28;20061;-92
2022/04/28 04:29:16;;;;;;;21.75;16.30;;;;;;;;;;4996897;28;20046;-92
2022/04/28 04:34:29;;;;;;;26.02;17.95;;;;;;;;;;4993756;28;20133;-93
2022/04/28 04:36:56;;;;;;;28.00;19.83;;;;;;;;;;4990969;28;20057;-92
2022/04/28 04:39:23;;;;;;;30.80;20.67;;;;;;;;;;4996929;28;20060;-93
2022/04/28 04:41:50;;;;;;;28.95;19.63;;;;;;;;;;4996554;28;20081;-93
2022/04/28 04:44:18;;;;;;;26.30;18.60;;;;;;;;;;4996710;28;20080;-93
2022/04/28 04:46:45;;;;;;;26.92;19.63;;;;;;;;;;4996210;28;20482;-93
2022/04/28 04:49:12;;;;;;;33.03;21.45;;;;;;;;;;4996693;28;20053;-92
2022/04/28 04:51:40;;;;;;;58.50;30.63;;;;;;;;;;4996977;28;20151;-91
2022/04/28 04:54:07;;;;;;;56.60;31.40;;;;;;;;;;5000008;28;20046;-93
2022/04/28 04:56:34;;;;;;;49.63;30.42;;;;;;;;;;4997104;28;20058;-92
2022/04/28 04:59:01;;;;;;;60.72;37.15;;;;;;;;;;4997047;28;20517;-92
2022/04/28 05:01:29;;;;;;;105.50;47.63;;;;;;;;;;4999156;28;20141;-92
2022/04/28 05:03:57;;;;;;;54.70;37.15;;;;;;;;;;4990683;28;20141;-92
2022/04/28 05:06:38;;;;;;;51.47;35.00;;;;;;;;;;5006852;28;20141;-91
2022/04/28 05:09:06;;;;;;;71.55;43.13;;;;;;;;;;5008390;28;20068;-92
2022/04/28 05:11:47;;;;;;;59.17;39.53;;;;;;;;;;5015427;28;20073;-92
2022/04/28 05:14:15;;;;;;;69.10;42.72;;;;;;;;;;4993075;28;20049;-92
2022/04/28 05:16:44;;;;;;;65.60;42.08;;;;;;;;;;5005789;28;20053;-91
2022/04/28 05:19:12;;;;;;;137.82;54.13;;;;;;;;;;5006722;28;20073;-90
2022/04/28 05:21:39;;;;;;;72.07;40.83;;;;;;;;;;5004523;28;20080;-91
2022/04/28 05:24:06;;;;;;;40.00;32.67;;;;;;;;;;5006273;28;20098;-92
2022/04/28 05:26:42;;;;;;;32.85;26.48;;;;;;;;;;5030769;28;20114;-90
2022/04/28 05:29:09;;;;;;;28.33;24.33;;;;;;;;;;5003391;28;20053;-91
2022/04/28 05:31:37;;;;;;;29.33;22.67;;;;;;;;;;5004818;28;20049;-91
2022/04/28 05:34:04;;;;;;;21.85;19.25;;;;;;;;;;5019735;28;20067;-91
2022/04/28 05:36:45;;;;;;;19.75;17.00;;;;;;;;;;5013532;28;20103;-92
2022/04/28 05:39:19;;;;;;;16.27;13.80;;;;;;;;;;5019810;28;20098;-93
2022/04/28 05:41:46;;;;;;;14.40;12.65;;;;;;;;;;5029303;28;20076;-92
2022/04/28 05:47:00;;;;;;;9.95;8.18;;;;;;;;;;5024589;28;20050;-92
2022/04/28 05:49:27;;;;;;;8.40;7.07;;;;;;;;;;5018893;28;20077;-92
2022/04/28 05:51:55;;;;;;;10.55;7.85;;;;;;;;;;5016535;28;20410;-91
2022/04/28 05:54:22;;;;;;;7.25;6.55;;;;;;;;;;5002457;28;20050;-92
2022/04/28 05:56:51;;;;;;;10.20;6.22;;;;;;;;;;5002599;28;20126;-91
2022/04/28 05:59:19;;;;;;;6.13;5.53;;;;;;;;;;5001417;28;20161;-91
2022/04/28 06:01:46;;;;;;;10.00;6.35;;;;;;;;;;5001780;28;20542;-92
2022/04/28 06:04:13;;;;;;;15.10;6.35;;;;;;;;;;5001863;28;20053;-91
2022/04/28 06:06:40;;;;;;;12.18;5.47;;;;;;;;;;5010744;28;20046;-92
2022/04/28 06:09:08;;;;;;;8.00;5.25;;;;;;;;;;5003081;28;20133;-91
2022/04/28 06:11:35;;;;;;;7.82;5.60;;;;;;;;;;5001901;28;20133;-91
2022/04/28 06:14:03;;;;;;;7.63;6.07;;;;;;;;;;5002464;28;20097;-90
2022/04/28 06:16:30;;;;;;;6.95;4.93;;;;;;;;;;5001717;28;20518;-92
2022/04/28 06:18:57;;;;;;;13.25;6.05;;;;;;;;;;4999576;28;20068;-91
2022/04/28 06:21:24;;;;;;;34.17;11.13;;;;;;;;;;5009282;28;20046;-91
2022/04/28 06:23:51;;;;;;;34.03;12.13;;;;;;;;;;5017364;28;20042;-92
2022/04/28 06:26:19;;;;;;;25.35;9.60;;;;;;;;;;5008398;28;20069;-92
2022/04/28 06:28:46;;;;;;;24.33;10.23;;;;;;;;;;4998557;28;20060;-92
2022/04/28 06:31:13;;;;;;;34.00;11.70;;;;;;;;;;4998351;28;20069;-91
2022/04/28 06:33:41;;;;;;;35.25;11.25;;;;;;;;;;5001254;28;20050;-92
2022/04/28 06:36:08;;;;;;;46.97;11.43;;;;;;;;;;4997846;28;20128;-92
2022/04/28 06:38:41;;;;;;;35.70;11.82;;;;;;;;;;4998959;28;20061;-91
2022/04/28 06:41:08;;;;;;;34.75;10.77;;;;;;;;;;4998199;28;20161;-92
2022/04/28 06:43:37;;;;;;;22.38;8.88;;;;;;;;;;4998481;28;20073;-91
2022/04/28 06:46:14;;;;;;;27.67;9.95;;;;;;;;;;4998204;28;20494;-92
2022/04/28 06:48:41;;;;;;;29.55;8.60;;;;;;;;;;4997906;28;20060;-91
2022/04/28 06:51:08;;;;;;;19.42;9.10;;;;;;;;;;4998149;28;20126;-91
2022/04/28 06:53:37;;;;;;;22.67;9.25;;;;;;;;;;4997087;28;20077;-91
2022/04/28 06:56:06;;;;;;;29.13;9.25;;;;;;;;;;4997348;28;20046;-91
2022/04/28 06:58:34;;;;;;;23.05;11.63;;;;;;;;;;4998308;28;20050;-91
2022/04/28 07:01:01;;;;;;;33.95;11.73;;;;;;;;;;5011708;28;20030;-92
2022/04/28 07:03:28;;;;;;;28.10;9.25;;;;;;;;;;5019397;28;20038;-91
2022/04/28 07:05:55;;;;;;;20.35;8.02;;;;;;;;;;5004686;28;20109;-90
2022/04/28 07:08:23;;;;;;;25.70;7.28;;;;;;;;;;4999772;28;20046;-93
2022/04/28 07:10:50;;;;;;;28.35;8.60;;;;;;;;;;4997187;28;20046;-91
2022/04/28 07:13:17;;;;;;;20.83;8.07;;;;;;;;;;4997333;28;20060;-91
2022/04/28 07:15:45;;;;;;;19.15;7.15;;;;;;;;;;4997102;28;20187;-93
2022/04/28 07:18:12;;;;;;;17.98;7.55;;;;;;;;;;4997551;28;20080;-95
2022/04/28 07:20:39;;;;;;;22.83;7.78;;;;;;;;;;4996875;28;20104;-91
2022/04/28 07:23:07;;;;;;;18.13;6.57;;;;;;;;;;4997065;28;20545;-92
2022/04/28 07:25:34;;;;;;;21.20;6.25;;;;;;;;;;4997332;28;20077;-90
2022/04/28 07:28:01;;;;;;;15.55;5.85;;;;;;;;;;4996722;28;20077;-91
2022/04/28 07:30:29;;;;;;;14.77;6.05;;;;;;;;;;4997538;28;20516;-92
2022/04/28 07:32:58;;;;;;;12.10;5.35;;;;;;;;;;4997580;28;20083;-91
2022/04/28 07:35:25;;;;;;;12.27;5.32;;;;;;;;;;4997054;28;20498;-91
2022/04/28 07:37:52;;;;;;;10.43;5.47;;;;;;;;;;4981765;28;20137;-91
2022/04/28 07:40:25;;;;;;;6.15;5.25;;;;;;;;;;4997399;28;20118;-91
2022/04/28 07:42:52;;;;;;;7.93;5.07;;;;;;;;;;4997136;28;20050;-92
2022/04/28 07:45:19;;;;;;;7.10;5.10;;;;;;;;;;4997177;28;20076;-91
2022/04/28 07:47:47;;;;;;;5.78;5.20;;;;;;;;;;4981652;28;20077;-91
2022/04/28 07:50:14;;;;;;;5.53;4.35;;;;;;;;;;4997182;28;20050;-91
2022/04/28 07:52:41;;;;;;;6.60;5.03;;;;;;;;;;4997299;28;20130;-92
2022/04/28 07:55:09;;;;;;;6.28;5.40;;;;;;;;;;4996630;28;20057;-89
2022/04/28 07:57:37;;;;;;;6.78;5.20;;;;;;;;;;4996632;28;20140;-90
2022/04/28 08:00:05;;;;;;;6.43;5.18;;;;;;;;;;4996379;28;20448;-89
2022/04/28 08:02:32;;;;;;;6.22;5.43;;;;;;;;;;4996894;28;20141;-91
2022/04/28 08:05:00;;;;;;;9.02;5.13;;;;;;;;;;4996561;28;20144;-90
2022/04/28 08:07:28;;;;;;;6.65;5.18;;;;;;;;;;4995381;28;20046;-91
2022/04/28 08:09:55;;;;;;;8.90;5.43;;;;;;;;;;4976925;28;20131;-91
2022/04/28 08:12:22;;;;;;;5.68;5.10;;;;;;;;;;4976924;28;20050;-90
2022/04/28 08:15:10;;;;;;;10.10;5.60;;;;;;;;;;4980332;28;20056;-92
2022/04/28 08:17:37;;;;;;;7.03;5.80;;;;;;;;;;4995053;28;20495;-93
2022/04/28 08:20:05;;;;;;;7.20;5.22;;;;;;;;;;4998431;28;20034;-91
2022/04/28 08:22:32;;;;;;;6.60;5.20;;;;;;;;;;4983951;28;20062;-92
2022/04/28 08:25:00;;;;;;;9.60;5.43;;;;;;;;;;4977593;28;20073;-91
2022/04/28 08:27:28;;;;;;;8.55;5.60;;;;;;;;;;4976928;28;20054;-92
2022/04/28 08:29:55;;;;;;;6.90;5.55;;;;;;;;;;4976552;28;20137;-91
2022/04/28 08:32:22;;;;;;;17.67;6.65;;;;;;;;;;4976962;28;20536;-91
2022/04/28 08:34:49;;;;;;;6.63;6.03;;;;;;;;;;4976846;28;20050;-90
2022/04/28 08:37:17;;;;;;;8.52;6.15;;;;;;;;;;4976264;28;20058;-90
2022/04/28 08:39:44;;;;;;;6.93;6.25;;;;;;;;;;4976087;28;20077;-89
2022/04/28 08:42:13;;;;;;;11.93;6.57;;;;;;;;;;4976715;28;20127;-91
2022/04/28 08:44:40;;;;;;;7.15;5.90;;;;;;;;;;4982709;28;20057;-90
2022/04/28 08:47:08;;;;;;;8.27;6.13;;;;;;;;;;4986355;28;20069;-91
2022/04/28 08:49:36;;;;;;;10.10;6.03;;;;;;;;;;4983801;28;20132;-92
2022/04/28 08:52:04;;;;;;;11.20;5.93;;;;;;;;;;4979832;28;20073;-91
2022/04/28 08:54:32;;;;;;;9.82;6.57;;;;;;;;;;4977124;28;20054;-91
2022/04/28 08:57:04;;;;;;;11.52;6.57;;;;;;;;;;4978522;28;20073;-92
2022/04/28 08:59:32;;;;;;;6.82;5.65;;;;;;;;;;4981098;28;20119;-87
2022/04/28 09:01:59;;;;;;;7.10;6.10;;;;;;;;;;4980990;28;20501;-88
2022/04/28 09:04:27;;;;;;;7.93;5.40;;;;;;;;;;4979347;28;20565;-89
2022/04/28 09:06:55;;;;;;;9.15;5.57;;;;;;;;;;4984183;28;20057;-87
2022/04/28 09:09:24;;;;;;;9.00;6.13;;;;;;;;;;4989360;28;20069;-87
2022/04/28 09:11:53;;;;;;;7.10;6.38;;;;;;;;;;4979067;28;20066;-91
2022/04/28 09:14:22;;;;;;;7.60;6.47;;;;;;;;;;4975445;28;20073;-90
2022/04/28 09:16:51;;;;;;;9.52;5.70;;;;;;;;;;4975874;28;20042;-89
2022/04/28 09:19:35;;;;;;;8.07;5.85;;;;;;;;;;4976780;28;20138;-89
2022/04/28 09:22:05;;;;;;;6.45;5.40;;;;;;;;;;4976356;28;20124;-89
2022/04/28 09:24:34;;;;;;;5.60;4.78;;;;;;;;;;4976080;28;20085;-89
2022/04/28 09:27:02;;;;;;;8.55;5.15;;;;;;;;;;4976991;28;20046;-90
2022/04/28 09:29:36;;;;;;;6.55;5.60;;;;;;;;;;4976909;28;20298;-88
2022/04/28 09:32:10;;;;;;;7.18;5.78;;;;;;;;;;4976623;28;20054;-90
2022/04/28 09:35:05;;;;;;;7.10;5.82;;;;;;;;;;4979128;28;20049;-88
2022/04/28 09:37:36;;;;;;;6.28;5.10;;;;;;;;;;4977102;28;20611;-87
2022/04/28 09:42:52;;;;;;;7.65;5.35;;;;;;;;;;4993400;28;20464;-88
2022/04/28 09:45:21;;;;;;;5.30;4.80;;;;;;;;;;4977057;28;20441;-90
2022/04/28 09:47:56;;;;;;;13.23;5.63;;;;;;;;;;4976767;28;20135;-88
2022/04/28 09:50:24;;;;;;;5.20;4.70;;;;;;;;;;4976958;28;20531;-89
2022/04/28 09:52:54;;;;;;;7.15;5.40;;;;;;;;;;4964920;28;20080;-88
2022/04/28 09:55:24;;;;;;;5.80;5.15;;;;;;;;;;4997676;28;20030;-90
2022/04/28 09:57:51;;;;;;;8.80;5.50;;;;;;;;;;4994816;28;20042;-90
2022/04/28 10:00:19;;;;;;;8.65;5.25;;;;;;;;;;4983796;28;20077;-89
2022/04/28 10:02:46;;;;;;;8.13;5.57;;;;;;;;;;4981227;28;20073;-89
2022/04/28 10:05:14;;;;;;;5.15;4.63;;;;;;;;;;4979316;28;20050;-89
2022/04/28 10:07:42;;;;;;;6.20;5.60;;;;;;;;;;4978936;28;20414;-89
2022/04/28 10:10:09;;;;;;;6.25;4.85;;;;;;;;;;4979553;28;20108;-89
2022/04/28 10:12:39;;;;;;;5.88;4.25;;;;;;;;;;4993196;28;20054;-91
2022/04/28 10:15:08;;;;;;;5.70;5.20;;;;;;;;;;5000574;28;20034;-91
2022/04/28 10:17:42;;;;;;;7.28;5.40;;;;;;;;;;4988224;28;20058;-91
2022/04/28 10:20:12;;;;;;;8.60;5.40;;;;;;;;;;4979553;28;20111;-88
2022/04/28 10:23:01;;;;;;;7.38;5.43;;;;;;;;;;4982142;28;20084;-88
2022/04/28 10:34:10;;;;;;;5.20;4.70;;;;;;;;;;4995593;28;20061;-89
2022/04/28 10:37:06;;;;;;;6.55;4.20;;;;;;;;;;4978809;28;20407;-89
2022/04/28 10:39:41;;;;;;;8.38;6.00;;;;;;;;;;4978413;28;20150;-93
2022/04/28 10:42:12;;;;;;;5.40;4.78;;;;;;;;;;4978305;28;20108;-87
2022/04/28 10:44:49;;;;;;;5.47;4.60;;;;;;;;;;4978379;28;20070;-88
2022/04/28 10:47:21;;;;;;;6.38;4.50;;;;;;;;;;4978618;28;20066;-87
2022/04/28 10:49:53;;;;;;;7.88;5.35;;;;;;;;;;4978271;28;20068;-88
2022/04/28 10:52:23;;;;;;;5.32;4.82;;;;;;;;;;4978599;28;20137;-93
2022/04/28 10:54:53;;;;;;;6.15;5.13;;;;;;;;;;4978394;28;20062;-88
2022/04/28 10:57:29;;;;;;;9.48;5.53;;;;;;;;;;4977999;28;20054;-87
2022/04/28 11:00:00;;;;;;;5.03;4.57;;;;;;;;;;4961081;28;20050;-88
2022/04/28 11:02:28;;;;;;;6.10;4.90;;;;;;;;;;4976699;28;20061;-88
2022/04/28 11:05:03;;;;;;;5.07;4.45;;;;;;;;;;4978726;28;20062;-91
2022/04/28 11:07:32;;;;;;;5.10;4.70;;;;;;;;;;4978766;28;20058;-89
2022/04/28 11:10:03;;;;;;;10.18;6.97;;;;;;;;;;4978566;28;20064;-94
2022/04/28 11:12:41;;;;;;;4.93;4.53;;;;;;;;;;4978255;28;20053;-90
2022/04/28 11:15:16;;;;;;;4.57;3.80;;;;;;;;;;4979229;28;20058;-89
2022/04/28 11:17:50;;;;;;;8.57;3.97;;;;;;;;;;4978588;28;20414;-88
2022/04/28 11:20:20;;;;;;;3.78;3.47;;;;;;;;;;4977885;28;20114;-87
2022/04/28 11:22:48;;;;;;;4.03;3.60;;;;;;;;;;4976820;28;20513;-87
2022/04/28 11:25:17;;;;;;;4.55;3.85;;;;;;;;;;4961340;28;20077;-87
2022/04/28 11:27:46;;;;;;;5.50;4.43;;;;;;;;;;4975115;28;20058;-88
2022/04/28 11:30:15;;;;;;;4.32;3.70;;;;;;;;;;4976104;28;20078;-90
2022/04/28 11:32:46;;;;;;;7.57;4.28;;;;;;;;;;4977412;28;20058;-88
2022/04/28 11:35:13;;;;;;;3.92;3.60;;;;;;;;;;4977103;28;20046;-87
2022/04/28 11:37:41;;;;;;;6.72;4.57;;;;;;;;;;4961455;28;20126;-91
2022/04/28 11:40:12;;;;;;;9.32;4.35;;;;;;;;;;4978082;28;20449;-88
2022/04/28 11:43:03;;;;;;;6.47;4.47;;;;;;;;;;4980456;28;20070;-94
2022/04/28 11:45:31;;;;;;;15.52;4.30;;;;;;;;;;4977700;28;20058;-88
2022/04/28 11:48:00;;;;;;;4.47;4.00;;;;;;;;;;4978394;28;20065;-89
2022/04/28 11:50:35;;;;;;;4.72;4.25;;;;;;;;;;4978447;28;20100;-90
2022/04/28 11:53:04;;;;;;;8.23;4.18;;;;;;;;;;4978710;28;20065;-87
2022/04/28 11:55:34;;;;;;;4.35;4.05;;;;;;;;;;4978471;28;20391;-92
2022/04/28 11:58:02;;;;;;;3.75;3.45;;;;;;;;;;4977752;28;20077;-90
2022/04/28 12:00:37;;;;;;;3.53;3.20;;;;;;;;;;4978486;28;20059;-88
2022/04/28 12:03:08;;;;;;;4.07;3.47;;;;;;;;;;4972311;28;20050;-89
2022/04/28 12:05:37;;;;;;;4.30;3.22;;;;;;;;;;5007456;28;20038;-87
2022/04/28 12:08:06;;;;;;;5.10;3.22;;;;;;;;;;4997899;28;20030;-88
2022/04/28 12:16:23;;;;;;;5.63;4.00;;;;;;;;;;5001259;28;20046;-89
2022/04/28 12:21:42;;;;;;;3.90;3.60;;;;;;;;;;5001880;28;20053;-88
2022/04/28 12:24:11;;;;;;;4.38;3.17;;;;;;;;;;4984120;28;20054;-87
2022/04/28 12:26:43;;;;;;;3.60;3.30;;;;;;;;;;4967848;28;20077;-88
2022/04/28 12:29:15;;;;;;;8.07;4.20;;;;;;;;;;5002538;28;20106;-91
2022/04/28 12:31:43;;;;;;;5.35;3.95;;;;;;;;;;4983236;28;20060;-88
2022/04/28 12:34:19;;;;;;;7.63;4.95;;;;;;;;;;5017580;28;20117;-88
2022/04/28 12:37:09;;;;;;;4.15;3.75;;;;;;;;;;5030658;28;20498;-88
2022/04/28 12:39:57;;;;;;;5.95;5.20;;;;;;;;;;5018301;28;20067;-93
2022/04/28 12:42:25;;;;;;;5.88;4.20;;;;;;;;;;5013459;28;20061;-87
2022/04/28 12:44:53;;;;;;;6.53;4.15;;;;;;;;;;5012168;28;20117;-93
2022/04/28 12:47:34;;;;;;;7.03;5.55;;;;;;;;;;5012582;28;20056;-88
2022/04/28 12:50:04;;;;;;;4.60;4.15;;;;;;;;;;5012260;28;20057;-86
2022/04/28 12:52:33;;;;;;;7.05;3.65;;;;;;;;;;4998821;28;20060;-87
2022/04/28 12:55:07;;;;;;;4.88;4.38;;;;;;;;;;4994640;28;20050;-89
2022/04/28 12:57:35;;;;;;;4.93;3.38;;;;;;;;;;4995561;28;20072;-90
2022/04/28 13:00:07;;;;;;;3.67;3.30;;;;;;;;;;4996437;28;20107;-88
2022/04/28 13:02:35;;;;;;;8.60;4.07;;;;;;;;;;4995301;28;20053;-90
2022/04/28 13:05:09;;;;;;;3.70;2.85;;;;;;;;;;4998010;28;20130;-88
2022/04/28 13:07:56;;;;;;;5.00;3.58;;;;;;;;;;5013670;28;20046;-87
2022/04/28 13:10:24;;;;;;;4.38;3.78;;;;;;;;;;4997279;28;20136;-88
2022/04/28 13:12:51;;;;;;;4.82;3.42;;;;;;;;;;5011730;28;20050;-89
2022/04/28 13:15:19;;;;;;;6.78;3.30;;;;;;;;;;5011270;28;20062;-89
2022/04/28 13:17:47;;;;;;;5.35;3.78;;;;;;;;;;5012748;28;20046;-85
2022/04/28 13:20:14;;;;;;;6.70;4.40;;;;;;;;;;5011867;28;20133;-88
2022/04/28 13:22:42;;;;;;;11.77;3.72;;;;;;;;;;5012295;28;20058;-91
2022/04/28 13:25:18;;;;;;;6.78;3.67;;;;;;;;;;5011878;28;20081;-90
2022/04/28 13:27:46;;;;;;;5.40;3.05;;;;;;;;;;5014422;28;20072;-88
2022/04/28 13:30:16;;;;;;;8.05;3.58;;;;;;;;;;5015572;28;20053;-87
2022/04/28 13:32:43;;;;;;;3.13;2.80;;;;;;;;;;5015941;28;20069;-89
2022/04/28 13:35:11;;;;;;;3.10;2.90;;;;;;;;;;5015870;28;20049;-88
2022/04/28 13:37:41;;;;;;;3.75;3.22;;;;;;;;;;5019280;28;20114;-92
2022/04/28 13:40:17;;;;;;;4.97;3.42;;;;;;;;;;5018931;28;20053;-91
2022/04/28 13:42:44;;;;;;;3.50;3.15;;;;;;;;;;5018648;28;20045;-89
2022/04/28 13:45:12;;;;;;;4.68;2.95;;;;;;;;;;5021011;28;20110;-88
2022/04/28 13:47:40;;;;;;;3.90;3.05;;;;;;;;;;5023696;28;20049;-88
2022/04/28 13:50:08;;;;;;;12.27;3.53;;;;;;;;;;5023760;28;20053;-86
2022/04/28 13:52:36;;;;;;;3.60;3.08;;;;;;;;;;5025045;28;20049;-87
2022/04/28 13:55:06;;;;;;;4.28;3.42;;;;;;;;;;5009614;28;20405;-87
2022/04/28 13:57:37;;;;;;;4.60;3.40;;;;;;;;;;5011703;28;20053;-91
2022/04/28 14:00:09;;;;;;;4.93;3.33;;;;;;;;;;5056689;28;20041;-88
2022/04/28 14:02:36;;;;;;;3.85;2.58;;;;;;;;;;5040490;28;20040;-87
2022/04/28 14:05:03;;;;;;;5.78;2.75;;;;;;;;;;5027866;28;20065;-87
2022/04/28 14:07:33;;;;;;;7.40;3.40;;;;;;;;;;5024442;28;20069;-85
2022/04/28 14:10:00;;;;;;;3.38;3.08;;;;;;;;;;5023102;28;20520;-87
2022/04/28 14:12:28;;;;;;;5.30;3.20;;;;;;;;;;5018452;28;20145;-87
2022/04/28 14:14:55;;;;;;;5.93;3.58;;;;;;;;;;5016585;28;20072;-87
2022/04/28 14:17:30;;;;;;;5.93;3.78;;;;;;;;;;5017685;28;20052;-92
2022/04/28 14:19:59;;;;;;;4.38;3.30;;;;;;;;;;5011713;28;20053;-88
2022/04/28 14:22:29;;;;;;;3.97;3.58;;;;;;;;;;5016004;28;20129;-88
2022/04/28 14:24:56;;;;;;;5.85;3.63;;;;;;;;;;4997662;28;20494;-88
2022/04/28 14:27:24;;;;;;;3.22;2.90;;;;;;;;;;4996959;28;20066;-92
2022/04/28 14:29:51;;;;;;;20.08;4.55;;;;;;;;;;4998131;28;20057;-88
2022/04/28 14:32:19;;;;;;;4.40;3.17;;;;;;;;;;4998138;28;20483;-94
2022/04/28 14:34:49;;;;;;;4.65;3.30;;;;;;;;;;4999702;28;20081;-88
2022/04/28 14:37:16;;;;;;;8.88;5.13;;;;;;;;;;4997825;28;20078;-89
2022/04/28 14:39:44;;;;;;;6.03;3.63;;;;;;;;;;4997374;28;20490;-87
2022/04/28 14:42:15;;;;;;;6.50;3.63;;;;;;;;;;4998095;28;20468;-90
2022/04/28 14:44:50;;;;;;;6.57;4.25;;;;;;;;;;5000670;28;20114;-94
2022/04/28 14:47:20;;;;;;;7.13;4.00;;;;;;;;;;4998020;28;20562;-91
2022/04/28 14:52:42;;;;;;;4.28;3.72;;;;;;;;;;5015822;28;20114;-89
2022/04/28 14:55:10;;;;;;;6.63;3.72;;;;;;;;;;4998211;28;20084;-90
2022/04/28 14:57:39;;;;;;;6.53;3.60;;;;;;;;;;4998675;28;20132;-90
2022/04/28 15:00:08;;;;;;;3.83;3.25;;;;;;;;;;5018320;22;20053;-90
2022/04/28 15:02:36;;;;;;;5.28;3.80;;;;;;;;;;4996745;28;20161;-89
2022/04/28 15:05:04;;;;;;;3.65;2.97;;;;;;;;;;5001063;28;20406;-88
2022/04/28 15:07:31;;;;;;;17.02;4.75;;;;;;;;;;5021717;28;20049;-91
2022/04/28 15:09:59;;;;;;;5.30;4.32;;;;;;;;;;5015720;28;20053;-90
2022/04/28 15:12:30;;;;;;;15.60;4.63;;;;;;;;;;5017423;28;20172;-92
2022/04/28 15:15:00;;;;;;;9.30;4.30;;;;;;;;;;5020970;28;20050;-89
2022/04/28 15:17:30;;;;;;;3.90;3.60;;;;;;;;;;5036221;28;20034;-88
2022/04/28 15:19:58;;;;;;;6.38;3.35;;;;;;;;;;5027316;28;20050;-89
2022/04/28 15:22:26;;;;;;;7.85;4.35;;;;;;;;;;5019572;28;20504;-89